sensor_id;sensor_type;location;lat;lon;timestamp;temperature;humidity
32095;DHT22;18608;53.688;10.748;2024-03-25T00:01:55;6.00;99.90
32095;DHT22;18608;53.688;10.748;2024-03-25T00:04:20;6.00;99.90
32095;DHT22;18608;53.688;10.748;2024-03-25T00:06:48;6.00;99.90
32095;DHT22;18608;53.688;10.748;2024-03-25T00:09:14;6.00;99.90
32095;DHT22;18608;53.688;10.748;2024-03-25T00:11:43;6.00;99.90
32095;DHT22;18608;53.688;10.748;2024-03-25T00:14:09;6.00;99.90
32095;DHT22;18608;53.688;10.748;2024-03-25T00:16:35;5.90;99.90
32095;DHT22;18608;53.688;10.748;2024-03-25T00:19:01;6.00;99.90
32095;DHT22;18608;53.688;10.748;2024-03-25T00:21:27;6.00;99.90
32095;DHT22;18608;53.688;10.748;2024-03-25T00:23:53;6.00;99.90
32095;DHT22;18608;53.688;10.748;2024-03-25T00:26:22;6.00;99.90
32095;DHT22;18608;53.688;10.748;2024-03-25T00:28:47;6.00;99.90
32095;DHT22;18608;53.688;10.748;2024-03-25T00:31:13;6.00;99.90
32095;DHT22;18608;53.688;10.748;2024-03-25T00:33:39;6.00;99.90
32095;DHT22;18608;53.688;10.748;2024-03-25T00:36:05;6.00;99.90
32095;DHT22;18608;53.688;10.748;2024-03-25T00:38:30;6.00;99.90
32095;DHT22;18608;53.688;10.748;2024-03-25T00:40:56;6.00;99.90
32095;DHT22;18608;53.688;10.748;2024-03-25T00:43:23;6.00;99.90
32095;DHT22;18608;53.688;10.748;2024-03-25T00:45:48;6.00;99.90
32095;DHT22;18608;53.688;10.748;2024-03-25T00:48:14;5.90;99.90
32095;DHT22;18608;53.688;10.748;2024-03-25T00:50:39;6.00;99.90
32095;DHT22;18608;53.688;10.748;2024-03-25T00:53:05;6.00;99.90
32095;DHT22;18608;53.688;10.748;2024-03-25T00:55:33;5.90;99.90
32095;DHT22;18608;53.688;10.748;2024-03-25T00:57:59;5.90;99.90
32095;DHT22;18608;53.688;10.748;2024-03-25T01:00:24;5.90;99.90
32095;DHT22;18608;53.688;10.748;2024-03-25T01:02:50;5.90;99.90
32095;DHT22;18608;53.688;10.748;2024-03-25T01:05:15;5.80;99.90
32095;DHT22;18608;53.688;10.748;2024-03-25T01:07:41;5.80;99.90
32095;DHT22;18608;53.688;10.748;2024-03-25T01:10:07;5.80;99.90
32095;DHT22;18608;53.688;10.748;2024-03-25T01:12:33;5.80;99.90
32095;DHT22;18608;53.688;10.748;2024-03-25T01:14:58;5.80;99.90
32095;DHT22;18608;53.688;10.748;2024-03-25T01:17:24;5.80;99.90
32095;DHT22;18608;53.688;10.748;2024-03-25T01:19:49;5.80;99.90
32095;DHT22;18608;53.688;10.748;2024-03-25T01:22:15;5.80;99.90
32095;DHT22;18608;53.688;10.748;2024-03-25T01:24:41;5.80;99.90
32095;DHT22;18608;53.688;10.748;2024-03-25T01:27:06;5.80;99.90
32095;DHT22;18608;53.688;10.748;2024-03-25T01:29:32;5.70;99.90
32095;DHT22;18608;53.688;10.748;2024-03-25T01:31:58;5.80;99.90
32095;DHT22;18608;53.688;10.748;2024-03-25T01:34:27;5.80;99.90
32095;DHT22;18608;53.688;10.748;2024-03-25T01:36:53;5.70;99.90
32095;DHT22;18608;53.688;10.748;2024-03-25T01:39:19;5.70;99.90
32095;DHT22;18608;53.688;10.748;2024-03-25T01:41:44;5.80;99.90
32095;DHT22;18608;53.688;10.748;2024-03-25T01:44:10;5.80;99.90
32095;DHT22;18608;53.688;10.748;2024-03-25T01:46:36;5.70;99.90
32095;DHT22;18608;53.688;10.748;2024-03-25T01:49:03;5.80;99.90
32095;DHT22;18608;53.688;10.748;2024-03-25T01:51:29;5.80;99.90
32095;DHT22;18608;53.688;10.748;2024-03-25T01:53:56;5.80;99.90
32095;DHT22;18608;53.688;10.748;2024-03-25T01:56:23;5.80;99.90
32095;DHT22;18608;53.688;10.748;2024-03-25T01:58:50;5.80;99.90
32095;DHT22;18608;53.688;10.748;2024-03-25T02:01:16;5.80;99.90
32095;DHT22;18608;53.688;10.748;2024-03-25T02:03:45;5.80;99.90
32095;DHT22;18608;53.688;10.748;2024-03-25T02:06:13;5.80;99.90
32095;DHT22;18608;53.688;10.748;2024-03-25T02:08:41;5.80;99.90
32095;DHT22;18608;53.688;10.748;2024-03-25T02:11:08;5.80;99.90
32095;DHT22;18608;53.688;10.748;2024-03-25T02:13:39;5.80;99.90
32095;DHT22;18608;53.688;10.748;2024-03-25T02:16:06;5.80;99.90
32095;DHT22;18608;53.688;10.748;2024-03-25T02:18:32;5.80;99.90
32095;DHT22;18608;53.688;10.748;2024-03-25T02:20:58;5.80;99.90
32095;DHT22;18608;53.688;10.748;2024-03-25T02:23:24;5.80;99.90
32095;DHT22;18608;53.688;10.748;2024-03-25T02:25:50;5.80;99.90
32095;DHT22;18608;53.688;10.748;2024-03-25T02:28:17;5.80;99.90
32095;DHT22;18608;53.688;10.748;2024-03-25T02:30:43;5.80;99.90
32095;DHT22;18608;53.688;10.748;2024-03-25T02:33:09;5.80;99.90
32095;DHT22;18608;53.688;10.748;2024-03-25T02:35:34;5.70;99.90
32095;DHT22;18608;53.688;10.748;2024-03-25T02:38:01;5.70;99.90
32095;DHT22;18608;53.688;10.748;2024-03-25T02:40:27;5.70;99.90
32095;DHT22;18608;53.688;10.748;2024-03-25T02:42:53;5.70;99.90
32095;DHT22;18608;53.688;10.748;2024-03-25T02:45:18;5.70;99.90
32095;DHT22;18608;53.688;10.748;2024-03-25T02:47:46;5.70;99.90
32095;DHT22;18608;53.688;10.748;2024-03-25T02:50:11;5.60;99.90
32095;DHT22;18608;53.688;10.748;2024-03-25T02:52:37;5.70;99.90
32095;DHT22;18608;53.688;10.748;2024-03-25T02:55:03;5.70;99.90
32095;DHT22;18608;53.688;10.748;2024-03-25T02:57:28;5.70;99.90
32095;DHT22;18608;53.688;10.748;2024-03-25T02:59:54;5.60;99.90
32095;DHT22;18608;53.688;10.748;2024-03-25T03:02:20;5.60;99.90
32095;DHT22;18608;53.688;10.748;2024-03-25T03:04:45;5.60;99.90
32095;DHT22;18608;53.688;10.748;2024-03-25T03:07:11;5.50;99.90
32095;DHT22;18608;53.688;10.748;2024-03-25T03:09:37;5.50;99.90
32095;DHT22;18608;53.688;10.748;2024-03-25T03:12:03;5.50;99.90
32095;DHT22;18608;53.688;10.748;2024-03-25T03:14:29;5.50;99.90
32095;DHT22;18608;53.688;10.748;2024-03-25T03:16:54;5.50;99.90
32095;DHT22;18608;53.688;10.748;2024-03-25T03:19:26;5.60;99.90
32095;DHT22;18608;53.688;10.748;2024-03-25T03:21:53;5.60;99.90
32095;DHT22;18608;53.688;10.748;2024-03-25T03:24:18;5.60;99.90
32095;DHT22;18608;53.688;10.748;2024-03-25T03:26:44;5.50;99.90
32095;DHT22;18608;53.688;10.748;2024-03-25T03:29:10;5.50;99.90
32095;DHT22;18608;53.688;10.748;2024-03-25T03:31:36;5.60;99.90
32095;DHT22;18608;53.688;10.748;2024-03-25T03:34:02;5.50;99.90
32095;DHT22;18608;53.688;10.748;2024-03-25T03:36:28;5.60;99.90
32095;DHT22;18608;53.688;10.748;2024-03-25T03:38:53;5.60;99.90
32095;DHT22;18608;53.688;10.748;2024-03-25T03:41:19;5.60;99.90
32095;DHT22;18608;53.688;10.748;2024-03-25T03:43:45;5.50;99.90
32095;DHT22;18608;53.688;10.748;2024-03-25T03:46:11;5.60;99.90
32095;DHT22;18608;53.688;10.748;2024-03-25T03:48:37;5.60;99.90
32095;DHT22;18608;53.688;10.748;2024-03-25T03:51:04;5.60;99.90
32095;DHT22;18608;53.688;10.748;2024-03-25T03:53:30;5.70;99.90
32095;DHT22;18608;53.688;10.748;2024-03-25T03:56:00;5.60;99.90
32095;DHT22;18608;53.688;10.748;2024-03-25T03:58:33;5.60;99.90
32095;DHT22;18608;53.688;10.748;2024-03-25T04:00:59;5.70;99.90
32095;DHT22;18608;53.688;10.748;2024-03-25T04:03:25;5.60;99.90
32095;DHT22;18608;53.688;10.748;2024-03-25T04:05:51;5.60;99.90
32095;DHT22;18608;53.688;10.748;2024-03-25T04:08:16;5.70;99.90
32095;DHT22;18608;53.688;10.748;2024-03-25T04:10:44;5.60;99.90
32095;DHT22;18608;53.688;10.748;2024-03-25T04:13:10;5.70;99.90
32095;DHT22;18608;53.688;10.748;2024-03-25T04:15:37;5.70;99.90
32095;DHT22;18608;53.688;10.748;2024-03-25T04:18:03;5.70;99.90
32095;DHT22;18608;53.688;10.748;2024-03-25T04:20:29;5.70;99.90
32095;DHT22;18608;53.688;10.748;2024-03-25T04:22:55;5.70;99.90
32095;DHT22;18608;53.688;10.748;2024-03-25T04:25:22;5.70;99.90
32095;DHT22;18608;53.688;10.748;2024-03-25T04:27:47;5.70;99.90
32095;DHT22;18608;53.688;10.748;2024-03-25T04:30:13;5.70;99.90
32095;DHT22;18608;53.688;10.748;2024-03-25T04:32:40;5.70;99.90
32095;DHT22;18608;53.688;10.748;2024-03-25T04:35:06;5.60;99.90
32095;DHT22;18608;53.688;10.748;2024-03-25T04:37:33;5.60;99.90
32095;DHT22;18608;53.688;10.748;2024-03-25T04:39:59;5.60;99.90
32095;DHT22;18608;53.688;10.748;2024-03-25T04:42:25;5.50;99.90
32095;DHT22;18608;53.688;10.748;2024-03-25T04:44:50;5.60;99.90
32095;DHT22;18608;53.688;10.748;2024-03-25T04:47:17;5.50;99.90
32095;DHT22;18608;53.688;10.748;2024-03-25T04:49:43;5.50;99.90
32095;DHT22;18608;53.688;10.748;2024-03-25T04:52:09;5.50;99.90
32095;DHT22;18608;53.688;10.748;2024-03-25T04:54:34;5.50;99.90
32095;DHT22;18608;53.688;10.748;2024-03-25T04:57:00;5.40;99.90
32095;DHT22;18608;53.688;10.748;2024-03-25T04:59:26;5.50;99.90
32095;DHT22;18608;53.688;10.748;2024-03-25T05:01:51;5.50;99.90
32095;DHT22;18608;53.688;10.748;2024-03-25T05:04:18;5.50;99.90
32095;DHT22;18608;53.688;10.748;2024-03-25T05:06:44;5.50;99.90
32095;DHT22;18608;53.688;10.748;2024-03-25T05:09:09;5.50;99.90
32095;DHT22;18608;53.688;10.748;2024-03-25T05:11:35;5.50;99.90
32095;DHT22;18608;53.688;10.748;2024-03-25T05:14:01;5.40;99.90
32095;DHT22;18608;53.688;10.748;2024-03-25T05:16:27;5.40;99.90
32095;DHT22;18608;53.688;10.748;2024-03-25T05:18:52;5.40;99.90
32095;DHT22;18608;53.688;10.748;2024-03-25T05:21:18;5.50;99.90
32095;DHT22;18608;53.688;10.748;2024-03-25T05:23:44;5.50;99.90
32095;DHT22;18608;53.688;10.748;2024-03-25T05:26:09;5.40;99.90
32095;DHT22;18608;53.688;10.748;2024-03-25T05:28:35;5.40;99.90
32095;DHT22;18608;53.688;10.748;2024-03-25T05:31:10;5.40;99.90
32095;DHT22;18608;53.688;10.748;2024-03-25T05:33:36;5.40;99.90
32095;DHT22;18608;53.688;10.748;2024-03-25T05:36:03;5.40;99.90
32095;DHT22;18608;53.688;10.748;2024-03-25T05:38:29;5.40;99.90
32095;DHT22;18608;53.688;10.748;2024-03-25T05:40:55;5.40;99.90
32095;DHT22;18608;53.688;10.748;2024-03-25T05:43:21;5.40;99.90
32095;DHT22;18608;53.688;10.748;2024-03-25T05:45:53;5.40;99.90
32095;DHT22;18608;53.688;10.748;2024-03-25T05:48:20;5.40;99.90
32095;DHT22;18608;53.688;10.748;2024-03-25T05:50:46;5.40;99.90
32095;DHT22;18608;53.688;10.748;2024-03-25T05:53:11;5.40;99.90
32095;DHT22;18608;53.688;10.748;2024-03-25T05:55:37;5.40;99.90
32095;DHT22;18608;53.688;10.748;2024-03-25T05:58:03;5.50;99.90
32095;DHT22;18608;53.688;10.748;2024-03-25T06:00:30;5.50;99.90
32095;DHT22;18608;53.688;10.748;2024-03-25T06:02:58;5.50;99.90
32095;DHT22;18608;53.688;10.748;2024-03-25T06:05:24;5.50;99.90
32095;DHT22;18608;53.688;10.748;2024-03-25T06:07:49;5.50;99.90
32095;DHT22;18608;53.688;10.748;2024-03-25T06:10:15;5.50;99.90
32095;DHT22;18608;53.688;10.748;2024-03-25T06:12:41;5.50;99.90
32095;DHT22;18608;53.688;10.748;2024-03-25T06:15:07;5.50;99.90
32095;DHT22;18608;53.688;10.748;2024-03-25T06:17:33;5.50;99.90
32095;DHT22;18608;53.688;10.748;2024-03-25T06:19:58;5.50;99.90
32095;DHT22;18608;53.688;10.748;2024-03-25T06:22:24;5.50;99.90
32095;DHT22;18608;53.688;10.748;2024-03-25T06:24:49;5.40;99.90
32095;DHT22;18608;53.688;10.748;2024-03-25T06:27:16;5.40;99.90
32095;DHT22;18608;53.688;10.748;2024-03-25T06:29:42;5.50;99.90
32095;DHT22;18608;53.688;10.748;2024-03-25T06:32:09;5.50;99.90
32095;DHT22;18608;53.688;10.748;2024-03-25T06:34:53;5.60;99.90
32095;DHT22;18608;53.688;10.748;2024-03-25T06:37:18;5.60;99.90
32095;DHT22;18608;53.688;10.748;2024-03-25T06:39:44;5.70;99.90
32095;DHT22;18608;53.688;10.748;2024-03-25T06:42:09;5.70;99.90
32095;DHT22;18608;53.688;10.748;2024-03-25T06:47:01;5.80;99.90
32095;DHT22;18608;53.688;10.748;2024-03-25T06:49:27;6.20;99.90
32095;DHT22;18608;53.688;10.748;2024-03-25T06:51:53;6.60;99.90
32095;DHT22;18608;53.688;10.748;2024-03-25T06:54:18;6.80;99.90
32095;DHT22;18608;53.688;10.748;2024-03-25T06:56:44;7.00;99.90
32095;DHT22;18608;53.688;10.748;2024-03-25T06:59:10;7.20;99.90
32095;DHT22;18608;53.688;10.748;2024-03-25T07:01:35;7.30;99.90
32095;DHT22;18608;53.688;10.748;2024-03-25T07:04:01;7.20;99.90
32095;DHT22;18608;53.688;10.748;2024-03-25T07:06:26;7.10;99.90
32095;DHT22;18608;53.688;10.748;2024-03-25T07:08:52;7.00;99.90
32095;DHT22;18608;53.688;10.748;2024-03-25T07:11:17;7.00;99.90
32095;DHT22;18608;53.688;10.748;2024-03-25T07:13:43;6.70;99.90
32095;DHT22;18608;53.688;10.748;2024-03-25T07:16:09;6.60;99.90
32095;DHT22;18608;53.688;10.748;2024-03-25T07:18:34;6.50;99.90
32095;DHT22;18608;53.688;10.748;2024-03-25T07:21:00;7.00;99.90
32095;DHT22;18608;53.688;10.748;2024-03-25T07:23:26;7.10;99.90
32095;DHT22;18608;53.688;10.748;2024-03-25T07:25:51;7.30;99.90
32095;DHT22;18608;53.688;10.748;2024-03-25T07:28:17;7.50;99.90
32095;DHT22;18608;53.688;10.748;2024-03-25T07:30:42;7.70;99.90
32095;DHT22;18608;53.688;10.748;2024-03-25T07:33:08;7.90;99.90
32095;DHT22;18608;53.688;10.748;2024-03-25T07:35:34;7.60;99.90
32095;DHT22;18608;53.688;10.748;2024-03-25T07:38:00;7.60;99.90
32095;DHT22;18608;53.688;10.748;2024-03-25T07:40:28;7.60;99.90
32095;DHT22;18608;53.688;10.748;2024-03-25T07:42:54;7.60;99.90
32095;DHT22;18608;53.688;10.748;2024-03-25T07:45:20;7.70;99.90
32095;DHT22;18608;53.688;10.748;2024-03-25T07:47:45;7.70;99.90
32095;DHT22;18608;53.688;10.748;2024-03-25T07:50:11;7.50;99.90
32095;DHT22;18608;53.688;10.748;2024-03-25T07:52:37;7.60;99.90
32095;DHT22;18608;53.688;10.748;2024-03-25T07:55:08;7.50;99.90
32095;DHT22;18608;53.688;10.748;2024-03-25T07:57:35;7.50;99.90
32095;DHT22;18608;53.688;10.748;2024-03-25T08:00:00;7.40;99.90
32095;DHT22;18608;53.688;10.748;2024-03-25T08:02:26;7.30;99.90
32095;DHT22;18608;53.688;10.748;2024-03-25T08:04:51;7.30;99.90
32095;DHT22;18608;53.688;10.748;2024-03-25T08:07:17;6.40;99.90
32095;DHT22;18608;53.688;10.748;2024-03-25T08:09:43;7.30;99.90
32095;DHT22;18608;53.688;10.748;2024-03-25T08:12:08;7.40;99.90
32095;DHT22;18608;53.688;10.748;2024-03-25T08:14:34;7.60;99.90
32095;DHT22;18608;53.688;10.748;2024-03-25T08:16:59;7.60;99.90
32095;DHT22;18608;53.688;10.748;2024-03-25T08:19:25;7.60;99.90
32095;DHT22;18608;53.688;10.748;2024-03-25T08:21:51;7.70;99.90
32095;DHT22;18608;53.688;10.748;2024-03-25T08:24:16;7.60;99.90
32095;DHT22;18608;53.688;10.748;2024-03-25T08:26:42;7.90;99.90
32095;DHT22;18608;53.688;10.748;2024-03-25T08:29:07;8.00;99.90
32095;DHT22;18608;53.688;10.748;2024-03-25T08:31:33;8.20;99.90
32095;DHT22;18608;53.688;10.748;2024-03-25T08:33:59;8.30;99.90
32095;DHT22;18608;53.688;10.748;2024-03-25T08:36:24;8.10;99.90
32095;DHT22;18608;53.688;10.748;2024-03-25T08:38:50;8.00;99.90
32095;DHT22;18608;53.688;10.748;2024-03-25T08:41:15;8.10;99.90
32095;DHT22;18608;53.688;10.748;2024-03-25T08:43:41;6.30;99.90
32095;DHT22;18608;53.688;10.748;2024-03-25T08:46:06;7.20;99.90
32095;DHT22;18608;53.688;10.748;2024-03-25T08:48:32;6.90;99.90
32095;DHT22;18608;53.688;10.748;2024-03-25T08:50:58;6.60;99.90
32095;DHT22;18608;53.688;10.748;2024-03-25T08:53:23;6.50;99.90
32095;DHT22;18608;53.688;10.748;2024-03-25T08:55:49;6.30;99.90
32095;DHT22;18608;53.688;10.748;2024-03-25T08:58:15;6.30;99.90
32095;DHT22;18608;53.688;10.748;2024-03-25T09:00:44;6.50;99.90
32095;DHT22;18608;53.688;10.748;2024-03-25T09:03:09;6.40;99.90
32095;DHT22;18608;53.688;10.748;2024-03-25T09:05:36;6.90;99.90
32095;DHT22;18608;53.688;10.748;2024-03-25T09:08:05;7.00;99.90
32095;DHT22;18608;53.688;10.748;2024-03-25T09:10:31;7.10;99.90
32095;DHT22;18608;53.688;10.748;2024-03-25T09:13:16;7.20;99.90
32095;DHT22;18608;53.688;10.748;2024-03-25T09:15:42;7.20;99.90
32095;DHT22;18608;53.688;10.748;2024-03-25T09:18:07;7.20;99.90
32095;DHT22;18608;53.688;10.748;2024-03-25T09:20:33;7.30;99.90
32095;DHT22;18608;53.688;10.748;2024-03-25T09:22:59;7.40;99.90
32095;DHT22;18608;53.688;10.748;2024-03-25T09:25:24;7.30;99.90
32095;DHT22;18608;53.688;10.748;2024-03-25T09:27:50;7.40;99.90
32095;DHT22;18608;53.688;10.748;2024-03-25T09:30:18;7.40;99.90
32095;DHT22;18608;53.688;10.748;2024-03-25T09:32:46;7.70;99.90
32095;DHT22;18608;53.688;10.748;2024-03-25T09:35:13;8.10;99.90
32095;DHT22;18608;53.688;10.748;2024-03-25T09:37:38;8.10;99.90
32095;DHT22;18608;53.688;10.748;2024-03-25T09:40:05;8.10;99.90
32095;DHT22;18608;53.688;10.748;2024-03-25T09:42:41;8.20;99.90
32095;DHT22;18608;53.688;10.748;2024-03-25T09:45:08;8.60;99.90
32095;DHT22;18608;53.688;10.748;2024-03-25T09:47:35;8.80;99.90
32095;DHT22;18608;53.688;10.748;2024-03-25T09:50:04;8.60;99.90
32095;DHT22;18608;53.688;10.748;2024-03-25T09:52:31;9.40;99.90
32095;DHT22;18608;53.688;10.748;2024-03-25T09:54:56;9.10;99.90
32095;DHT22;18608;53.688;10.748;2024-03-25T09:57:22;9.40;99.90
32095;DHT22;18608;53.688;10.748;2024-03-25T09:59:49;10.10;99.90
32095;DHT22;18608;53.688;10.748;2024-03-25T10:02:16;10.10;99.90
32095;DHT22;18608;53.688;10.748;2024-03-25T10:04:48;10.00;99.90
32095;DHT22;18608;53.688;10.748;2024-03-25T10:07:23;9.90;99.90
32095;DHT22;18608;53.688;10.748;2024-03-25T10:09:50;9.90;99.90
32095;DHT22;18608;53.688;10.748;2024-03-25T10:22:07;9.30;99.90
32095;DHT22;18608;53.688;10.748;2024-03-25T10:24:51;9.30;99.90
32095;DHT22;18608;53.688;10.748;2024-03-25T10:27:21;10.00;99.90
32095;DHT22;18608;53.688;10.748;2024-03-25T10:34:40;10.30;99.90
32095;DHT22;18608;53.688;10.748;2024-03-25T10:37:09;10.20;99.90
32095;DHT22;18608;53.688;10.748;2024-03-25T10:39:39;9.90;99.90
32095;DHT22;18608;53.688;10.748;2024-03-25T10:42:10;9.40;99.90
32095;DHT22;18608;53.688;10.748;2024-03-25T10:47:05;8.20;99.90
32095;DHT22;18608;53.688;10.748;2024-03-25T10:49:57;8.20;99.90
32095;DHT22;18608;53.688;10.748;2024-03-25T10:52:24;7.80;99.90
32095;DHT22;18608;53.688;10.748;2024-03-25T10:54:51;7.70;99.90
32095;DHT22;18608;53.688;10.748;2024-03-25T10:57:19;7.80;99.90
32095;DHT22;18608;53.688;10.748;2024-03-25T10:59:45;7.80;99.90
32095;DHT22;18608;53.688;10.748;2024-03-25T11:02:12;8.00;99.90
32095;DHT22;18608;53.688;10.748;2024-03-25T11:04:38;8.10;99.90
32095;DHT22;18608;53.688;10.748;2024-03-25T11:07:13;8.30;99.90
32095;DHT22;18608;53.688;10.748;2024-03-25T11:09:40;8.50;99.90
32095;DHT22;18608;53.688;10.748;2024-03-25T11:12:06;8.70;99.90
32095;DHT22;18608;53.688;10.748;2024-03-25T11:14:33;8.70;99.90
32095;DHT22;18608;53.688;10.748;2024-03-25T11:17:00;8.90;99.90
32095;DHT22;18608;53.688;10.748;2024-03-25T11:19:29;9.10;99.90
32095;DHT22;18608;53.688;10.748;2024-03-25T11:22:09;8.50;99.90
32095;DHT22;18608;53.688;10.748;2024-03-25T11:24:36;9.20;99.90
32095;DHT22;18608;53.688;10.748;2024-03-25T11:27:06;8.90;99.90
32095;DHT22;18608;53.688;10.748;2024-03-25T11:29:31;8.80;99.90
32095;DHT22;18608;53.688;10.748;2024-03-25T11:32:01;8.80;99.90
32095;DHT22;18608;53.688;10.748;2024-03-25T11:34:28;8.50;99.90
32095;DHT22;18608;53.688;10.748;2024-03-25T11:36:54;8.50;99.90
32095;DHT22;18608;53.688;10.748;2024-03-25T11:39:22;8.70;99.90
32095;DHT22;18608;53.688;10.748;2024-03-25T11:41:47;9.10;99.90
32095;DHT22;18608;53.688;10.748;2024-03-25T11:44:13;8.90;99.90
32095;DHT22;18608;53.688;10.748;2024-03-25T11:46:40;8.90;99.90
32095;DHT22;18608;53.688;10.748;2024-03-25T11:49:07;9.00;99.90
32095;DHT22;18608;53.688;10.748;2024-03-25T11:51:35;9.10;99.90
32095;DHT22;18608;53.688;10.748;2024-03-25T11:54:04;9.90;99.90
32095;DHT22;18608;53.688;10.748;2024-03-25T11:56:31;10.40;99.90
32095;DHT22;18608;53.688;10.748;2024-03-25T11:58:58;10.70;99.90
32095;DHT22;18608;53.688;10.748;2024-03-25T12:23:42;9.90;99.90
32095;DHT22;18608;53.688;10.748;2024-03-25T12:31:07;9.20;99.90
32095;DHT22;18608;53.688;10.748;2024-03-25T12:33:43;9.30;99.90
32095;DHT22;18608;53.688;10.748;2024-03-25T12:36:11;9.30;99.90
32095;DHT22;18608;53.688;10.748;2024-03-25T12:41:07;9.80;99.90
32095;DHT22;18608;53.688;10.748;2024-03-25T12:43:34;10.10;99.90
32095;DHT22;18608;53.688;10.748;2024-03-25T12:50:52;9.90;99.90
32095;DHT22;18608;53.688;10.748;2024-03-25T12:53:19;9.80;99.90
32095;DHT22;18608;53.688;10.748;2024-03-25T12:55:48;9.60;99.90
32095;DHT22;18608;53.688;10.748;2024-03-25T13:03:07;9.30;99.90
32095;DHT22;18608;53.688;10.748;2024-03-25T13:10:26;9.00;99.90
32095;DHT22;18608;53.688;10.748;2024-03-25T13:12:52;8.90;99.90
32095;DHT22;18608;53.688;10.748;2024-03-25T13:15:18;9.20;99.90
32095;DHT22;18608;53.688;10.748;2024-03-25T13:17:43;9.30;99.90
32095;DHT22;18608;53.688;10.748;2024-03-25T13:22:35;9.70;99.90
32095;DHT22;18608;53.688;10.748;2024-03-25T13:25:01;9.70;99.90
32095;DHT22;18608;53.688;10.748;2024-03-25T13:27:26;9.80;99.90
32095;DHT22;18608;53.688;10.748;2024-03-25T13:32:22;10.10;99.90
32095;DHT22;18608;53.688;10.748;2024-03-25T13:51:57;10.40;99.90
32095;DHT22;18608;53.688;10.748;2024-03-25T13:54:28;10.30;99.90
32095;DHT22;18608;53.688;10.748;2024-03-25T14:14:02;10.40;99.90
32095;DHT22;18608;53.688;10.748;2024-03-25T14:16:28;10.40;99.90
32095;DHT22;18608;53.688;10.748;2024-03-25T14:26:13;10.50;99.90
32095;DHT22;18608;53.688;10.748;2024-03-25T14:28:42;10.40;99.90
32095;DHT22;18608;53.688;10.748;2024-03-25T14:45:47;10.00;99.90
32095;DHT22;18608;53.688;10.748;2024-03-25T15:02:53;10.10;99.90
32095;DHT22;18608;53.688;10.748;2024-03-25T15:10:11;9.60;99.90
32095;DHT22;18608;53.688;10.748;2024-03-25T15:12:40;9.50;99.90
32095;DHT22;18608;53.688;10.748;2024-03-25T15:15:06;9.30;99.90
32095;DHT22;18608;53.688;10.748;2024-03-25T15:17:33;9.20;99.90
32095;DHT22;18608;53.688;10.748;2024-03-25T15:19:59;9.10;99.90
32095;DHT22;18608;53.688;10.748;2024-03-25T15:22:25;9.10;99.90
32095;DHT22;18608;53.688;10.748;2024-03-25T15:24:51;9.60;99.90
32095;DHT22;18608;53.688;10.748;2024-03-25T15:27:16;9.30;99.90
32095;DHT22;18608;53.688;10.748;2024-03-25T15:29:42;9.30;99.90
32095;DHT22;18608;53.688;10.748;2024-03-25T15:32:07;9.20;99.90
32095;DHT22;18608;53.688;10.748;2024-03-25T15:34:33;9.30;99.90
32095;DHT22;18608;53.688;10.748;2024-03-25T15:36:59;9.30;99.90
32095;DHT22;18608;53.688;10.748;2024-03-25T15:39:24;9.30;99.90
32095;DHT22;18608;53.688;10.748;2024-03-25T15:41:51;9.50;99.90
32095;DHT22;18608;53.688;10.748;2024-03-25T15:44:17;9.50;99.90
32095;DHT22;18608;53.688;10.748;2024-03-25T15:46:43;9.50;99.90
32095;DHT22;18608;53.688;10.748;2024-03-25T15:49:09;9.50;99.90
32095;DHT22;18608;53.688;10.748;2024-03-25T15:51:34;9.30;99.90
32095;DHT22;18608;53.688;10.748;2024-03-25T15:54:00;9.40;99.90
32095;DHT22;18608;53.688;10.748;2024-03-25T15:58:52;9.50;99.90
32095;DHT22;18608;53.688;10.748;2024-03-25T16:06:13;9.60;99.90
32095;DHT22;18608;53.688;10.748;2024-03-25T16:08:39;9.70;99.90
32095;DHT22;18608;53.688;10.748;2024-03-25T16:13:31;9.70;99.90
32095;DHT22;18608;53.688;10.748;2024-03-25T16:16:04;9.70;99.90
32095;DHT22;18608;53.688;10.748;2024-03-25T16:25:50;9.70;99.90
32095;DHT22;18608;53.688;10.748;2024-03-25T16:37:59;9.70;99.90
32095;DHT22;18608;53.688;10.748;2024-03-25T16:45:17;9.60;99.90
32095;DHT22;18608;53.688;10.748;2024-03-25T16:50:09;9.30;99.90
32095;DHT22;18608;53.688;10.748;2024-03-25T16:52:35;9.30;99.90
32095;DHT22;18608;53.688;10.748;2024-03-25T16:57:27;8.90;99.90
32095;DHT22;18608;53.688;10.748;2024-03-25T16:59:53;8.90;99.90
32095;DHT22;18608;53.688;10.748;2024-03-25T17:02:18;8.80;99.90
32095;DHT22;18608;53.688;10.748;2024-03-25T17:04:44;8.80;99.90
32095;DHT22;18608;53.688;10.748;2024-03-25T17:07:09;8.70;99.90
32095;DHT22;18608;53.688;10.748;2024-03-25T17:09:35;8.50;99.90
32095;DHT22;18608;53.688;10.748;2024-03-25T17:12:02;8.40;99.90
32095;DHT22;18608;53.688;10.748;2024-03-25T17:14:27;8.30;99.90
32095;DHT22;18608;53.688;10.748;2024-03-25T17:16:53;8.30;99.90
32095;DHT22;18608;53.688;10.748;2024-03-25T17:19:19;8.30;99.90
32095;DHT22;18608;53.688;10.748;2024-03-25T17:21:44;8.20;99.90
32095;DHT22;18608;53.688;10.748;2024-03-25T17:24:11;8.30;99.90
32095;DHT22;18608;53.688;10.748;2024-03-25T17:26:37;8.90;99.90
32095;DHT22;18608;53.688;10.748;2024-03-25T17:29:02;8.50;99.90
32095;DHT22;18608;53.688;10.748;2024-03-25T17:31:28;8.50;99.90
32095;DHT22;18608;53.688;10.748;2024-03-25T17:33:54;8.50;99.90
32095;DHT22;18608;53.688;10.748;2024-03-25T17:36:20;8.50;99.90
32095;DHT22;18608;53.688;10.748;2024-03-25T17:38:45;8.50;99.90
32095;DHT22;18608;53.688;10.748;2024-03-25T17:41:11;8.50;99.90
32095;DHT22;18608;53.688;10.748;2024-03-25T17:43:37;8.50;99.90
32095;DHT22;18608;53.688;10.748;2024-03-25T17:46:03;8.50;99.90
32095;DHT22;18608;53.688;10.748;2024-03-25T17:48:29;8.50;99.90
32095;DHT22;18608;53.688;10.748;2024-03-25T17:50:57;8.30;99.90
32095;DHT22;18608;53.688;10.748;2024-03-25T17:53:30;8.20;99.90
32095;DHT22;18608;53.688;10.748;2024-03-25T17:55:56;8.20;99.90
32095;DHT22;18608;53.688;10.748;2024-03-25T17:58:24;8.20;99.90
32095;DHT22;18608;53.688;10.748;2024-03-25T18:00:49;8.10;99.90
32095;DHT22;18608;53.688;10.748;2024-03-25T18:03:19;8.10;99.90
32095;DHT22;18608;53.688;10.748;2024-03-25T18:05:45;8.00;99.90
32095;DHT22;18608;53.688;10.748;2024-03-25T18:08:11;7.90;99.90
32095;DHT22;18608;53.688;10.748;2024-03-25T18:10:37;7.90;99.90
32095;DHT22;18608;53.688;10.748;2024-03-25T18:13:09;7.80;99.90
32095;DHT22;18608;53.688;10.748;2024-03-25T18:15:48;7.70;99.90
32095;DHT22;18608;53.688;10.748;2024-03-25T18:18:14;7.70;99.90
32095;DHT22;18608;53.688;10.748;2024-03-25T18:20:43;7.60;99.90
32095;DHT22;18608;53.688;10.748;2024-03-25T18:23:09;7.60;99.90
32095;DHT22;18608;53.688;10.748;2024-03-25T18:25:38;7.50;99.90
32095;DHT22;18608;53.688;10.748;2024-03-25T18:28:04;7.30;99.90